sensor_id;sensor_type;location;lat;lon;timestamp;pressure;altitude;pressure_sealevel;temperature;humidity
47985;BME280;33753;52.912;-7.342;2023-05-09T00:01:13;100184.88;;;8.62;100.00
47985;BME280;33753;52.912;-7.342;2023-05-09T00:03:42;100188.75;;;8.68;100.00
47985;BME280;33753;52.912;-7.342;2023-05-09T00:06:10;100188.25;;;8.72;100.00
47985;BME280;33753;52.912;-7.342;2023-05-09T00:08:39;100185.38;;;8.74;100.00
47985;BME280;33753;52.912;-7.342;2023-05-09T00:11:07;100187.56;;;8.78;100.00
47985;BME280;33753;52.912;-7.342;2023-05-09T00:13:35;100193.31;;;8.84;100.00
47985;BME280;33753;52.912;-7.342;2023-05-09T00:16:04;100196.19;;;8.90;100.00
47985;BME280;33753;52.912;-7.342;2023-05-09T00:18:34;100195.34;;;8.98;100.00
47985;BME280;33753;52.912;-7.342;2023-05-09T00:21:03;100191.31;;;9.02;100.00
47985;BME280;33753;52.912;-7.342;2023-05-09T00:23:31;100193.31;;;9.08;100.00
47985;BME280;33753;52.912;-7.342;2023-05-09T00:25:59;100195.69;;;9.11;100.00
47985;BME280;33753;52.912;-7.342;2023-05-09T00:28:28;100198.72;;;9.16;100.00
47985;BME280;33753;52.912;-7.342;2023-05-09T00:30:56;100200.25;;;9.19;100.00
47985;BME280;33753;52.912;-7.342;2023-05-09T00:33:24;100203.63;;;9.21;100.00
47985;BME280;33753;52.912;-7.342;2023-05-09T00:35:55;100207.50;;;9.27;100.00
47985;BME280;33753;52.912;-7.342;2023-05-09T00:38:23;100206.84;;;9.25;100.00
47985;BME280;33753;52.912;-7.342;2023-05-09T00:40:51;100221.69;;;9.29;100.00
47985;BME280;33753;52.912;-7.342;2023-05-09T00:43:19;100219.97;;;9.28;100.00
47985;BME280;33753;52.912;-7.342;2023-05-09T00:45:48;100216.59;;;9.26;100.00
47985;BME280;33753;52.912;-7.342;2023-05-09T00:48:17;100212.41;;;9.23;100.00
47985;BME280;33753;52.912;-7.342;2023-05-09T00:50:45;100211.03;;;9.19;100.00
47985;BME280;33753;52.912;-7.342;2023-05-09T00:53:19;100203.97;;;9.18;100.00
47985;BME280;33753;52.912;-7.342;2023-05-09T00:55:48;100203.44;;;9.14;100.00
47985;BME280;33753;52.912;-7.342;2023-05-09T00:58:16;100204.81;;;9.10;100.00
47985;BME280;33753;52.912;-7.342;2023-05-09T01:00:45;100198.72;;;9.08;100.00
47985;BME280;33753;52.912;-7.342;2023-05-09T01:03:13;100203.63;;;9.05;100.00
47985;BME280;33753;52.912;-7.342;2023-05-09T01:05:44;100197.72;;;9.01;100.00
47985;BME280;33753;52.912;-7.342;2023-05-09T01:08:16;100201.75;;;8.97;100.00
47985;BME280;33753;52.912;-7.342;2023-05-09T01:10:52;100199.56;;;8.92;100.00
47985;BME280;33753;52.912;-7.342;2023-05-09T01:13:25;100193.97;;;8.86;100.00
47985;BME280;33753;52.912;-7.342;2023-05-09T01:15:57;100184.69;;;8.80;100.00
47985;BME280;33753;52.912;-7.342;2023-05-09T01:18:31;100182.50;;;8.75;100.00
47985;BME280;33753;52.912;-7.342;2023-05-09T01:21:01;100183.19;;;8.69;100.00
47985;BME280;33753;52.912;-7.342;2023-05-09T01:23:39;100179.78;;;8.67;100.00
47985;BME280;33753;52.912;-7.342;2023-05-09T01:26:16;100177.78;;;8.61;100.00
47985;BME280;33753;52.912;-7.342;2023-05-09T01:28:59;100177.41;;;8.56;
47985;BME280;33753;52.912;-7.342;2023-05-09T01:31:34;100174.72;;;8.47;100.00
47985;BME280;33753;52.912;-7.342;2023-05-09T01:34:04;100173.66;;;8.40;100.00
47985;BME280;33753;52.912;-7.342;2023-05-09T01:36:34;100181.72;;;8.32;100.00
47985;BME280;33753;52.912;-7.342;2023-05-09T01:39:03;100172.44;;;8.26;100.00
47985;BME280;33753;52.912;-7.342;2023-05-09T01:41:35;100160.97;;;8.16;100.00
47985;BME280;33753;52.912;-7.342;2023-05-09T01:44:05;100161.25;;;8.13;100.00
47985;BME280;33753;52.912;-7.342;2023-05-09T01:46:36;100159.94;;;8.09;100.00
47985;BME280;33753;52.912;-7.342;2023-05-09T01:49:05;100150.66;;;8.03;100.00
47985;BME280;33753;52.912;-7.342;2023-05-09T01:51:34;100157.88;;;8.03;100.00
47985;BME280;33753;52.912;-7.342;2023-05-09T01:54:04;100144.91;;;7.98;100.00
47985;BME280;33753;52.912;-7.342;2023-05-09T01:56:33;100152.66;;;8.01;100.00
47985;BME280;33753;52.912;-7.342;2023-05-09T01:59:02;100150.44;;;7.96;100.00
47985;BME280;33753;52.912;-7.342;2023-05-09T02:01:33;100148.25;;;7.92;100.00
47985;BME280;33753;52.912;-7.342;2023-05-09T02:04:03;100145.19;;;7.87;100.00
47985;BME280;33753;52.912;-7.342;2023-05-09T02:06:32;100139.47;;;7.82;100.00
47985;BME280;33753;52.912;-7.342;2023-05-09T02:09:01;100140.78;;;7.77;100.00
47985;BME280;33753;52.912;-7.342;2023-05-09T02:11:30;100137.75;;;7.81;100.00
47985;BME280;33753;52.912;-7.342;2023-05-09T02:13:59;100137.44;;;7.84;100.00
47985;BME280;33753;52.912;-7.342;2023-05-09T02:16:27;100136.06;;;7.79;100.00
47985;BME280;33753;52.912;-7.342;2023-05-09T02:18:55;100131.50;;;7.72;100.00
47985;BME280;33753;52.912;-7.342;2023-05-09T02:21:26;100127.06;;;7.63;100.00
47985;BME280;33753;52.912;-7.342;2023-05-09T02:23:54;100123.50;;;7.54;100.00
47985;BME280;33753;52.912;-7.342;2023-05-09T02:26:23;100121.28;;;7.49;100.00
47985;BME280;33753;52.912;-7.342;2023-05-09T02:28:52;100115.38;;;7.46;100.00
47985;BME280;33753;52.912;-7.342;2023-05-09T02:31:21;100111.13;;;7.43;100.00
47985;BME280;33753;52.912;-7.342;2023-05-09T02:33:51;100116.84;;;7.40;100.00
47985;BME280;33753;52.912;-7.342;2023-05-09T02:36:20;100120.34;;;7.32;100.00
47985;BME280;33753;52.912;-7.342;2023-05-09T02:38:50;100113.09;;;7.24;100.00
47985;BME280;33753;52.912;-7.342;2023-05-09T02:41:18;100115.91;;;7.23;100.00
47985;BME280;33753;52.912;-7.342;2023-05-09T02:43:47;100102.31;;;7.24;100.00
47985;BME280;33753;52.912;-7.342;2023-05-09T02:46:16;100112.22;;;7.24;100.00
47985;BME280;33753;52.912;-7.342;2023-05-09T02:48:44;100109.69;;;7.22;100.00
47985;BME280;33753;52.912;-7.342;2023-05-09T02:51:12;100106.00;;;7.23;100.00
47985;BME280;33753;52.912;-7.342;2023-05-09T02:53:40;100105.84;;;7.25;100.00
47985;BME280;33753;52.912;-7.342;2023-05-09T02:56:10;100105.13;;;7.23;100.00
47985;BME280;33753;52.912;-7.342;2023-05-09T02:58:38;100100.09;;;7.20;100.00
47985;BME280;33753;52.912;-7.342;2023-05-09T03:01:08;100097.72;;;7.17;100.00
47985;BME280;33753;52.912;-7.342;2023-05-09T03:03:36;100098.72;;;7.16;100.00
47985;BME280;33753;52.912;-7.342;2023-05-09T03:06:04;100100.72;;;7.14;100.00
47985;BME280;33753;52.912;-7.342;2023-05-09T03:08:33;100097.50;;;7.10;100.00
47985;BME280;33753;52.912;-7.342;2023-05-09T03:11:02;100095.28;;;7.05;100.00
47985;BME280;33753;52.912;-7.342;2023-05-09T03:13:32;100091.94;;;7.03;100.00
47985;BME280;33753;52.912;-7.342;2023-05-09T03:16:00;100094.94;;;7.00;100.00
47985;BME280;33753;52.912;-7.342;2023-05-09T03:18:28;100096.41;;;6.95;100.00
47985;BME280;33753;52.912;-7.342;2023-05-09T03:20:56;100089.09;;;6.87;100.00
47985;BME280;33753;52.912;-7.342;2023-05-09T03:23:25;100088.59;;;6.83;100.00
47985;BME280;33753;52.912;-7.342;2023-05-09T03:25:53;100091.44;;;6.82;100.00
47985;BME280;33753;52.912;-7.342;2023-05-09T03:28:21;100088.03;;;6.80;100.00
47985;BME280;33753;52.912;-7.342;2023-05-09T03:30:51;100093.41;;;6.80;100.00
47985;BME280;33753;52.912;-7.342;2023-05-09T03:33:22;100086.97;;;6.72;100.00
47985;BME280;33753;52.912;-7.342;2023-05-09T03:35:51;100085.28;;;6.71;100.00
47985;BME280;33753;52.912;-7.342;2023-05-09T03:38:20;100082.91;;;6.68;100.00
47985;BME280;33753;52.912;-7.342;2023-05-09T03:40:50;100080.53;;;6.65;100.00
47985;BME280;33753;52.912;-7.342;2023-05-09T03:43:20;100076.31;;;6.63;100.00
47985;BME280;33753;52.912;-7.342;2023-05-09T03:45:48;100073.78;;;6.61;100.00
47985;BME280;33753;52.912;-7.342;2023-05-09T03:48:18;100080.31;;;6.58;100.00
47985;BME280;33753;52.912;-7.342;2023-05-09T03:50:49;100071.56;;;6.56;100.00
47985;BME280;33753;52.912;-7.342;2023-05-09T03:53:19;100064.66;;;6.54;100.00
47985;BME280;33753;52.912;-7.342;2023-05-09T03:55:48;100064.97;;;6.51;100.00
47985;BME280;33753;52.912;-7.342;2023-05-09T03:58:17;100058.94;;;6.49;100.00
47985;BME280;33753;52.912;-7.342;2023-05-09T04:00:46;100064.59;;;6.46;100.00
47985;BME280;33753;52.912;-7.342;2023-05-09T04:03:21;100059.53;;;6.43;100.00
47985;BME280;33753;52.912;-7.342;2023-05-09T04:05:51;100055.16;;;6.42;100.00
47985;BME280;33753;52.912;-7.342;2023-05-09T04:08:27;100045.41;;;6.40;100.00
47985;BME280;33753;52.912;-7.342;2023-05-09T04:10:55;100052.44;;;6.42;100.00
47985;BME280;33753;52.912;-7.342;2023-05-09T04:13:24;100038.66;;;6.36;100.00
47985;BME280;33753;52.912;-7.342;2023-05-09T04:15:53;100036.44;;;6.32;100.00
47985;BME280;33753;52.912;-7.342;2023-05-09T04:18:23;100030.69;;;6.27;100.00
47985;BME280;33753;52.912;-7.342;2023-05-09T04:20:51;100033.38;;;6.27;100.00
47985;BME280;33753;52.912;-7.342;2023-05-09T04:23:20;100030.84;;;6.25;100.00
47985;BME280;33753;52.912;-7.342;2023-05-09T04:25:48;100028.81;;;6.27;100.00
47985;BME280;33753;52.912;-7.342;2023-05-09T04:28:18;100022.63;;;6.27;100.00
47985;BME280;33753;52.912;-7.342;2023-05-09T04:30:48;100027.00;;;6.28;100.00
47985;BME280;33753;52.912;-7.342;2023-05-09T04:33:18;100021.78;;;6.26;100.00
47985;BME280;33753;52.912;-7.342;2023-05-09T04:35:49;100018.41;;;6.24;100.00
47985;BME280;33753;52.912;-7.342;2023-05-09T04:38:18;100026.31;;;6.26;100.00
47985;BME280;33753;52.912;-7.342;2023-05-09T04:40:47;100023.47;;;6.27;100.00
47985;BME280;33753;52.912;-7.342;2023-05-09T04:43:15;100019.78;;;6.28;100.00
47985;BME280;33753;52.912;-7.342;2023-05-09T04:45:44;100020.50;;;6.30;100.00
47985;BME280;33753;52.912;-7.342;2023-05-09T04:48:13;100018.09;;;6.27;100.00
47985;BME280;33753;52.912;-7.342;2023-05-09T04:50:42;100012.44;;;6.30;100.00
47985;BME280;33753;52.912;-7.342;2023-05-09T04:53:11;100019.16;;;6.34;100.00
47985;BME280;33753;52.912;-7.342;2023-05-09T04:55:40;100022.53;;;6.36;100.00
47985;BME280;33753;52.912;-7.342;2023-05-09T04:58:08;100022.53;;;6.36;100.00
47985;BME280;33753;52.912;-7.342;2023-05-09T05:00:37;100021.91;;;6.43;100.00
47985;BME280;33753;52.912;-7.342;2023-05-09T05:03:06;100026.97;;;6.46;100.00
47985;BME280;33753;52.912;-7.342;2023-05-09T05:05:34;100031.75;;;6.52;100.00
47985;BME280;33753;52.912;-7.342;2023-05-09T05:08:04;100025.72;;;6.58;100.00
47985;BME280;33753;52.912;-7.342;2023-05-09T05:10:37;100025.09;;;6.64;100.00
47985;BME280;33753;52.912;-7.342;2023-05-09T05:13:10;100025.31;;;6.71;100.00
47985;BME280;33753;52.912;-7.342;2023-05-09T05:15:42;100035.28;;;6.79;100.00
47985;BME280;33753;52.912;-7.342;2023-05-09T05:18:11;100030.94;;;6.86;100.00
47985;BME280;33753;52.912;-7.342;2023-05-09T05:20:40;100035.56;;;6.94;100.00
47985;BME280;33753;52.912;-7.342;2023-05-09T05:23:09;100042.81;;;7.01;100.00
47985;BME280;33753;52.912;-7.342;2023-05-09T05:25:39;100034.97;;;7.08;100.00
47985;BME280;33753;52.912;-7.342;2023-05-09T05:28:07;100049.47;;;7.15;100.00
47985;BME280;33753;52.912;-7.342;2023-05-09T05:30:36;100050.03;;;7.27;100.00
47985;BME280;33753;52.912;-7.342;2023-05-09T05:33:05;100049.91;;;7.37;100.00
47985;BME280;33753;52.912;-7.342;2023-05-09T05:35:33;100053.31;;;7.47;100.00
47985;BME280;33753;52.912;-7.342;2023-05-09T05:38:01;100061.97;;;7.59;100.00
47985;BME280;33753;52.912;-7.342;2023-05-09T05:40:29;100057.28;;;7.69;100.00
47985;BME280;33753;52.912;-7.342;2023-05-09T05:43:03;100060.53;;;7.89;100.00
47985;BME280;33753;52.912;-7.342;2023-05-09T05:45:32;100064.81;;;8.17;100.00
47985;BME280;33753;52.912;-7.342;2023-05-09T05:48:04;100064.88;;;8.50;100.00
47985;BME280;33753;52.912;-7.342;2023-05-09T05:50:32;100069.25;;;8.84;100.00
47985;BME280;33753;52.912;-7.342;2023-05-09T05:53:03;100076.78;;;9.21;100.00
47985;BME280;33753;52.912;-7.342;2023-05-09T05:55:32;100080.91;;;9.57;100.00
47985;BME280;33753;52.912;-7.342;2023-05-09T05:58:01;100076.06;;;9.83;100.00
47985;BME280;33753;52.912;-7.342;2023-05-09T06:00:30;100080.59;;;10.14;100.00
47985;BME280;33753;52.912;-7.342;2023-05-09T06:03:03;100080.19;;;10.26;100.00
47985;BME280;33753;52.912;-7.342;2023-05-09T06:05:41;100079.00;;;10.28;100.00
47985;BME280;33753;52.912;-7.342;2023-05-09T06:08:11;100080.88;;;10.28;100.00
47985;BME280;33753;52.912;-7.342;2023-05-09T06:10:39;100075.47;;;10.36;100.00
47985;BME280;33753;52.912;-7.342;2023-05-09T06:13:07;100075.94;;;10.31;100.00
47985;BME280;33753;52.912;-7.342;2023-05-09T06:15:40;100081.53;;;10.30;100.00
47985;BME280;33753;52.912;-7.342;2023-05-09T06:18:09;100081.88;;;10.27;100.00
47985;BME280;33753;52.912;-7.342;2023-05-09T06:20:37;100075.03;;;10.16;100.00
47985;BME280;33753;52.912;-7.342;2023-05-09T06:23:06;100079.72;;;10.22;100.00
47985;BME280;33753;52.912;-7.342;2023-05-09T06:25:34;100070.75;;;10.21;100.00
47985;BME280;33753;52.912;-7.342;2023-05-09T06:28:03;100062.41;;;10.08;100.00
47985;BME280;33753;52.912;-7.342;2023-05-09T06:30:31;100065.72;;;10.18;100.00
47985;BME280;33753;52.912;-7.342;2023-05-09T06:33:00;100058.66;;;10.17;100.00
47985;BME280;33753;52.912;-7.342;2023-05-09T06:35:29;100059.63;;;10.25;100.00
47985;BME280;33753;52.912;-7.342;2023-05-09T06:37:57;100060.34;;;10.42;100.00
47985;BME280;33753;52.912;-7.342;2023-05-09T06:40:25;100047.25;;;10.53;100.00
47985;BME280;33753;52.912;-7.342;2023-05-09T06:42:53;100046.75;;;10.73;100.00
47985;BME280;33753;52.912;-7.342;2023-05-09T06:45:22;100047.28;;;11.06;100.00
47985;BME280;33753;52.912;-7.342;2023-05-09T06:47:50;100045.16;;;11.32;100.00
47985;BME280;33753;52.912;-7.342;2023-05-09T06:50:20;100047.88;;;11.32;100.00
47985;BME280;33753;52.912;-7.342;2023-05-09T06:52:49;100040.19;;;11.65;100.00
47985;BME280;33753;52.912;-7.342;2023-05-09T06:55:17;100037.50;;;11.87;100.00
47985;BME280;33753;52.912;-7.342;2023-05-09T06:57:45;100036.50;;;11.88;100.00
47985;BME280;33753;52.912;-7.342;2023-05-09T07:00:14;100021.63;;;11.84;100.00
47985;BME280;33753;52.912;-7.342;2023-05-09T07:02:42;100027.16;;;11.90;100.00
47985;BME280;33753;52.912;-7.342;2023-05-09T07:05:11;100029.84;;;12.05;100.00
47985;BME280;33753;52.912;-7.342;2023-05-09T07:07:40;100027.94;;;12.06;100.00
47985;BME280;33753;52.912;-7.342;2023-05-09T07:10:09;100018.00;;;12.13;100.00
47985;BME280;33753;52.912;-7.342;2023-05-09T07:12:38;100018.09;;;12.41;100.00
47985;BME280;33753;52.912;-7.342;2023-05-09T07:15:07;100022.56;;;12.49;100.00
47985;BME280;33753;52.912;-7.342;2023-05-09T07:17:36;100015.34;;;12.63;100.00
47985;BME280;33753;52.912;-7.342;2023-05-09T07:20:05;100028.34;;;12.68;100.00
47985;BME280;33753;52.912;-7.342;2023-05-09T07:22:34;100023.91;;;12.88;100.00
47985;BME280;33753;52.912;-7.342;2023-05-09T07:25:06;100022.31;;;13.29;100.00
47985;BME280;33753;52.912;-7.342;2023-05-09T07:27:35;100025.78;;;13.51;100.00
47985;BME280;33753;52.912;-7.342;2023-05-09T07:30:04;100009.00;;;13.89;100.00
47985;BME280;33753;52.912;-7.342;2023-05-09T07:32:33;100014.75;;;14.48;100.00
47985;BME280;33753;52.912;-7.342;2023-05-09T07:35:01;100011.81;;;15.10;100.00
47985;BME280;33753;52.912;-7.342;2023-05-09T07:37:30;100013.09;;;15.72;100.00
47985;BME280;33753;52.912;-7.342;2023-05-09T07:39:58;100009.81;;;16.34;100.00
47985;BME280;33753;52.912;-7.342;2023-05-09T07:42:28;100006.94;;;16.29;100.00
47985;BME280;33753;52.912;-7.342;2023-05-09T07:44:58;99970.03;;;16.20;100.00
47985;BME280;33753;52.912;-7.342;2023-05-09T07:47:26;99972.84;;;16.38;100.00
47985;BME280;33753;52.912;-7.342;2023-05-09T07:49:55;99975.00;;;16.30;100.00
47985;BME280;33753;52.912;-7.342;2023-05-09T07:52:23;99964.50;;;16.33;100.00
47985;BME280;33753;52.912;-7.342;2023-05-09T07:54:51;99966.50;;;16.45;100.00
47985;BME280;33753;52.912;-7.342;2023-05-09T07:57:20;99963.25;;;16.54;100.00
47985;BME280;33753;52.912;-7.342;2023-05-09T07:59:50;99952.28;;;16.36;100.00
47985;BME280;33753;52.912;-7.342;2023-05-09T08:02:18;99936.13;;;16.34;100.00
47985;BME280;33753;52.912;-7.342;2023-05-09T08:04:46;99946.75;;;16.93;100.00
47985;BME280;33753;52.912;-7.342;2023-05-09T08:07:15;99944.31;;;16.85;100.00
47985;BME280;33753;52.912;-7.342;2023-05-09T08:09:43;99939.41;;;17.31;100.00
47985;BME280;33753;52.912;-7.342;2023-05-09T08:12:11;99973.56;;;17.89;100.00
47985;BME280;33753;52.912;-7.342;2023-05-09T08:14:40;99952.66;;;17.64;100.00
47985;BME280;33753;52.912;-7.342;2023-05-09T08:17:09;99930.66;;;18.79;100.00
47985;BME280;33753;52.912;-7.342;2023-05-09T08:19:38;99905.41;;;18.77;100.00
47985;BME280;33753;52.912;-7.342;2023-05-09T08:22:06;99927.69;;;19.04;100.00
47985;BME280;33753;52.912;-7.342;2023-05-09T08:24:34;99938.78;;;19.09;100.00
47985;BME280;33753;52.912;-7.342;2023-05-09T08:27:02;99937.22;;;19.13;100.00
47985;BME280;33753;52.912;-7.342;2023-05-09T08:29:31;99903.63;;;19.06;100.00
47985;BME280;33753;52.912;-7.342;2023-05-09T08:31:59;99919.72;;;19.43;100.00
47985;BME280;33753;52.912;-7.342;2023-05-09T08:34:29;99892.44;;;19.94;100.00
47985;BME280;33753;52.912;-7.342;2023-05-09T08:37:00;99909.63;;;20.35;100.00
47985;BME280;33753;52.912;-7.342;2023-05-09T08:39:28;99892.59;;;20.89;100.00
47985;BME280;33753;52.912;-7.342;2023-05-09T08:41:57;99898.09;;;21.34;100.00
47985;BME280;33753;52.912;-7.342;2023-05-09T08:44:27;99916.44;;;21.72;100.00
47985;BME280;33753;52.912;-7.342;2023-05-09T08:46:58;99922.56;;;21.80;100.00
47985;BME280;33753;52.912;-7.342;2023-05-09T08:49:26;99920.75;;;22.18;100.00
47985;BME280;33753;52.912;-7.342;2023-05-09T08:51:56;99900.66;;;22.22;100.00
47985;BME280;33753;52.912;-7.342;2023-05-09T08:54:24;99891.13;;;22.03;100.00
47985;BME280;33753;52.912;-7.342;2023-05-09T08:56:53;99848.31;;;22.22;100.00
47985;BME280;33753;52.912;-7.342;2023-05-09T08:59:21;99827.63;;;22.57;100.00
47985;BME280;33753;52.912;-7.342;2023-05-09T09:01:49;99878.72;;;23.23;100.00
47985;BME280;33753;52.912;-7.342;2023-05-09T09:04:18;99864.72;;;23.56;100.00
47985;BME280;33753;52.912;-7.342;2023-05-09T09:06:46;99832.44;;;23.72;100.00
47985;BME280;33753;52.912;-7.342;2023-05-09T09:09:16;99812.56;;;23.59;100.00
47985;BME280;33753;52.912;-7.342;2023-05-09T09:11:45;99829.72;;;23.97;100.00
47985;BME280;33753;52.912;-7.342;2023-05-09T09:14:17;99799.31;;;23.67;100.00
47985;BME280;33753;52.912;-7.342;2023-05-09T09:16:49;99836.91;;;24.09;100.00
47985;BME280;33753;52.912;-7.342;2023-05-09T09:19:19;99783.31;;;23.58;100.00
47985;BME280;33753;52.912;-7.342;2023-05-09T09:21:49;99804.81;;;23.41;100.00
47985;BME280;33753;52.912;-7.342;2023-05-09T09:24:22;99779.84;;;23.00;100.00
47985;BME280;33753;52.912;-7.342;2023-05-09T09:26:50;99828.78;;;23.30;100.00
47985;BME280;33753;52.912;-7.342;2023-05-09T09:29:18;99859.97;;;23.25;100.00
47985;BME280;33753;52.912;-7.342;2023-05-09T09:31:51;99792.41;;;22.70;100.00
47985;BME280;33753;52.912;-7.342;2023-05-09T09:34:20;99794.53;;;22.52;100.00
47985;BME280;33753;52.912;-7.342;2023-05-09T09:36:48;99788.31;;;22.30;100.00
47985;BME280;33753;52.912;-7.342;2023-05-09T09:39:16;99789.22;;;22.40;100.00
47985;BME280;33753;52.912;-7.342;2023-05-09T09:41:47;99789.34;;;22.23;100.00
47985;BME280;33753;52.912;-7.342;2023-05-09T09:44:15;99802.91;;;22.30;100.00
47985;BME280;33753;52.912;-7.342;2023-05-09T09:46:44;99826.63;;;22.74;100.00
47985;BME280;33753;52.912;-7.342;2023-05-09T09:49:13;99853.31;;;23.21;100.00
47985;BME280;33753;52.912;-7.342;2023-05-09T09:51:42;99795.28;;;22.95;100.00
47985;BME280;33753;52.912;-7.342;2023-05-09T09:54:11;99777.97;;;22.47;100.00
47985;BME280;33753;52.912;-7.342;2023-05-09T09:56:40;99800.59;;;22.54;100.00
47985;BME280;33753;52.912;-7.342;2023-05-09T09:59:11;99796.41;;;22.41;100.00
47985;BME280;33753;52.912;-7.342;2023-05-09T10:01:56;99800.72;;;22.75;100.00
47985;BME280;33753;52.912;-7.342;2023-05-09T10:04:25;99834.63;;;23.54;100.00
47985;BME280;33753;52.912;-7.342;2023-05-09T10:06:54;99807.34;;;23.68;100.00
47985;BME280;33753;52.912;-7.342;2023-05-09T10:09:22;99789.91;;;23.68;100.00
47985;BME280;33753;52.912;-7.342;2023-05-09T10:11:51;99768.09;;;23.30;100.00
47985;BME280;33753;52.912;-7.342;2023-05-09T10:14:22;99777.75;;;23.33;100.00
47985;BME280;33753;52.912;-7.342;2023-05-09T10:16:51;99751.22;;;23.16;100.00
47985;BME280;33753;52.912;-7.342;2023-05-09T10:19:22;99788.28;;;23.77;100.00
47985;BME280;33753;52.912;-7.342;2023-05-09T10:21:50;99769.75;;;24.13;100.00
47985;BME280;33753;52.912;-7.342;2023-05-09T10:24:20;99759.94;;;24.78;100.00
47985;BME280;33753;52.912;-7.342;2023-05-09T10:26:49;99742.53;;;25.22;100.00
47985;BME280;33753;52.912;-7.342;2023-05-09T10:29:22;99714.06;;;25.16;100.00
47985;BME280;33753;52.912;-7.342;2023-05-09T10:31:51;99721.50;;;25.90;100.00
47985;BME280;33753;52.912;-7.342;2023-05-09T10:34:21;99730.09;;;26.42;100.00
47985;BME280;33753;52.912;-7.342;2023-05-09T10:36:52;99723.13;;;26.93;100.00
47985;BME280;33753;52.912;-7.342;2023-05-09T10:39:21;99728.44;;;27.28;100.00
47985;BME280;33753;52.912;-7.342;2023-05-09T10:41:49;99716.38;;;27.70;100.00
47985;BME280;33753;52.912;-7.342;2023-05-09T10:44:17;99694.31;;;27.93;100.00
47985;BME280;33753;52.912;-7.342;2023-05-09T10:46:47;99697.66;;;28.37;100.00
47985;BME280;33753;52.912;-7.342;2023-05-09T10:49:16;99690.53;;;28.44;100.00
47985;BME280;33753;52.912;-7.342;2023-05-09T10:51:44;99697.13;;;28.49;100.00
47985;BME280;33753;52.912;-7.342;2023-05-09T10:54:13;99684.34;;;28.48;100.00
47985;BME280;33753;52.912;-7.342;2023-05-09T10:56:42;99684.06;;;29.22;100.00
47985;BME280;33753;52.912;-7.342;2023-05-09T11:01:57;99676.72;;;28.67;100.00
47985;BME280;33753;52.912;-7.342;2023-05-09T11:04:28;99675.19;;;28.98;100.00
47985;BME280;33753;52.912;-7.342;2023-05-09T11:06:57;99672.94;;;29.00;100.00
47985;BME280;33753;52.912;-7.342;2023-05-09T11:09:30;99683.41;;;28.66;100.00
47985;BME280;33753;52.912;-7.342;2023-05-09T11:12:00;99682.09;;;28.64;100.00
47985;BME280;33753;52.912;-7.342;2023-05-09T11:14:38;99672.00;;;28.26;100.00
47985;BME280;33753;52.912;-7.342;2023-05-09T11:17:09;99672.91;;;27.47;100.00
47985;BME280;33753;52.912;-7.342;2023-05-09T11:22:24;99677.28;;;25.80;100.00
47985;BME280;33753;52.912;-7.342;2023-05-09T11:25:02;99677.56;;;25.49;100.00
47985;BME280;33753;52.912;-7.342;2023-05-09T11:27:39;99679.09;;;26.19;100.00
47985;BME280;33753;52.912;-7.342;2023-05-09T11:30:08;99675.69;;;26.27;100.00
47985;BME280;33753;52.912;-7.342;2023-05-09T11:32:42;99669.28;;;26.51;100.00
47985;BME280;33753;52.912;-7.342;2023-05-09T11:35:12;99661.50;;;25.51;100.00
47985;BME280;33753;52.912;-7.342;2023-05-09T11:37:45;99660.13;;;26.07;100.00
47985;BME280;33753;52.912;-7.342;2023-05-09T11:40:14;99669.53;;;26.30;100.00
47985;BME280;33753;52.912;-7.342;2023-05-09T11:42:43;99660.81;;;25.94;100.00
47985;BME280;33753;52.912;-7.342;2023-05-09T11:45:11;99666.31;;;26.23;100.00
47985;BME280;33753;52.912;-7.342;2023-05-09T11:47:41;99670.00;;;26.37;100.00
47985;BME280;33753;52.912;-7.342;2023-05-09T11:50:10;99664.06;;;26.25;100.00
47985;BME280;33753;52.912;-7.342;2023-05-09T11:52:39;99658.69;;;26.34;100.00
47985;BME280;33753;52.912;-7.342;2023-05-09T11:55:08;99657.00;;;26.57;100.00
47985;BME280;33753;52.912;-7.342;2023-05-09T11:57:38;99656.72;;;26.78;100.00
47985;BME280;33753;52.912;-7.342;2023-05-09T12:00:07;99656.19;;;26.95;100.00
47985;BME280;33753;52.912;-7.342;2023-05-09T12:02:36;99657.56;;;26.97;100.00
47985;BME280;33753;52.912;-7.342;2023-05-09T12:05:10;99667.03;;;27.29;100.00
47985;BME280;33753;52.912;-7.342;2023-05-09T12:07:40;99662.03;;;27.12;100.00
47985;BME280;33753;52.912;-7.342;2023-05-09T12:10:08;99660.97;;;26.51;100.00
47985;BME280;33753;52.912;-7.342;2023-05-09T12:12:40;99666.25;;;26.04;100.00
47985;BME280;33753;52.912;-7.342;2023-05-09T12:15:09;99664.41;;;25.30;100.00
47985;BME280;33753;52.912;-7.342;2023-05-09T12:17:40;99662.88;;;24.74;100.00
47985;BME280;33753;52.912;-7.342;2023-05-09T12:20:10;99668.84;;;24.37;100.00
47985;BME280;33753;52.912;-7.342;2023-05-09T12:22:41;99686.13;;;23.67;100.00
47985;BME280;33753;52.912;-7.342;2023-05-09T12:25:10;99687.50;;;23.49;100.00
47985;BME280;33753;52.912;-7.342;2023-05-09T12:27:40;99687.06;;;22.63;100.00
47985;BME280;33753;52.912;-7.342;2023-05-09T12:30:08;99697.94;;;22.32;100.00
47985;BME280;33753;52.912;-7.342;2023-05-09T12:32:39;99700.47;;;21.90;100.00
47985;BME280;33753;52.912;-7.342;2023-05-09T12:35:10;99705.78;;;21.60;100.00
47985;BME280;33753;52.912;-7.342;2023-05-09T12:37:39;99714.41;;;20.86;100.00
47985;BME280;33753;52.912;-7.342;2023-05-09T12:40:08;99719.31;;;20.84;100.00
47985;BME280;33753;52.912;-7.342;2023-05-09T12:42:38;99720.53;;;20.49;100.00
47985;BME280;33753;52.912;-7.342;2023-05-09T12:45:07;99716.53;;;20.35;100.00
47985;BME280;33753;52.912;-7.342;2023-05-09T12:47:35;99712.78;;;20.02;100.00
47985;BME280;33753;52.912;-7.342;2023-05-09T12:50:05;99709.44;;;19.49;100.00
47985;BME280;33753;52.912;-7.342;2023-05-09T12:52:35;99703.09;;;19.14;100.00
47985;BME280;33753;52.912;-7.342;2023-05-09T12:55:20;99693.94;;;18.51;100.00